Time;durP1;ratioP1;P1;durP2;ratioP2;P2;SDS_P1;SDS_P2;PMS_P1;PMS_P2;Temp;Humidity;BMP_temperature;BMP_pressure;BME280_temperature;BME280_humidity;BME280_pressure;Samples;Min_cycle;Max_cycle;Signal;HPM_P1;HPM_P2
2021/05/26 00:00:32;;;;;;;1.25;0.95;;;10.20;99.90;;;;;;5012350;28;20581;-67
2021/05/26 00:03:00;;;;;;;1.10;0.98;;;10.10;99.90;;;;;;5011845;28;20216;-70
2021/05/26 00:05:29;;;;;;;1.20;1.10;;;10.10;99.90;;;;;;5012139;28;20202;-67
2021/05/26 00:07:58;;;;;;;1.17;0.77;;;10.10;99.90;;;;;;5011896;28;20186;-68
2021/05/26 00:10:25;;;;;;;1.10;1.00;;;10.00;99.90;;;;;;5011931;28;20186;-67
2021/05/26 00:12:53;;;;;;;3.50;1.20;;;10.00;99.90;;;;;;5011548;28;20210;-69
2021/05/26 00:15:22;;;;;;;0.90;0.70;;;9.90;99.90;;;;;;5011717;28;20182;-69
2021/05/26 00:17:49;;;;;;;1.70;1.30;;;9.80;99.90;;;;;;5011722;28;20234;-67
2021/05/26 00:20:17;;;;;;;1.55;1.15;;;9.60;99.90;;;;;;5010345;28;20625;-68
2021/05/26 00:22:45;;;;;;;2.80;1.48;;;9.50;99.90;;;;;;5011313;28;20221;-69
2021/05/26 00:25:14;;;;;;;1.20;0.85;;;9.40;99.90;;;;;;5011427;28;20234;-68
2021/05/26 00:27:43;;;;;;;1.60;1.27;;;9.40;99.90;;;;;;5011550;28;20174;-67
2021/05/26 00:30:11;;;;;;;1.40;1.17;;;9.40;99.90;;;;;;5011505;28;20193;-68
2021/05/26 00:32:39;;;;;;;2.58;0.95;;;9.40;99.90;;;;;;5011410;28;20213;-69
2021/05/26 00:35:09;;;;;;;1.30;1.15;;;9.40;99.90;;;;;;5011425;28;20170;-68
2021/05/26 00:37:37;;;;;;;5.88;1.05;;;9.40;99.90;;;;;;5011283;28;20190;-68
2021/05/26 00:40:09;;;;;;;1.20;0.90;;;9.50;99.90;;;;;;5011533;28;20276;-67
2021/05/26 00:42:38;;;;;;;1.15;0.88;;;9.60;99.90;;;;;;5011471;28;20209;-69
2021/05/26 00:45:07;;;;;;;1.42;1.25;;;9.70;99.90;;;;;;5011386;28;20248;-67
2021/05/26 00:47:37;;;;;;;1.05;0.90;;;9.80;99.90;;;;;;5011964;28;20834;-66
2021/05/26 00:50:09;;;;;;;1.95;1.00;;;9.80;99.90;;;;;;5013653;28;20174;-68
2021/05/26 00:52:37;;;;;;;1.73;1.30;;;9.80;99.90;;;;;;5014553;28;20595;-67
2021/05/26 00:55:07;;;;;;;1.00;0.82;;;9.80;99.90;;;;;;5015842;28;20649;-68
2021/05/26 00:57:36;;;;;;;1.08;0.98;;;9.80;99.90;;;;;;5014909;28;20274;-69
2021/05/26 01:00:05;;;;;;;2.13;1.35;;;9.80;99.90;;;;;;5014957;28;20222;-68
2021/05/26 01:02:34;;;;;;;1.10;0.80;;;9.80;99.90;;;;;;5010661;28;20238;-67
2021/05/26 01:05:02;;;;;;;1.30;1.10;;;9.90;99.90;;;;;;5012058;28;20229;-68
2021/05/26 01:07:30;;;;;;;1.30;0.80;;;9.80;99.90;;;;;;5011986;28;20174;-69
2021/05/26 01:09:58;;;;;;;1.20;0.80;;;9.80;99.90;;;;;;5011409;28;20178;-69
2021/05/26 01:12:26;;;;;;;1.30;1.20;;;9.80;99.90;;;;;;5011380;28;20281;-67
2021/05/26 01:14:54;;;;;;;1.00;0.73;;;9.90;99.90;;;;;;5010599;28;20625;-68
2021/05/26 01:17:22;;;;;;;1.55;1.05;;;9.90;99.90;;;;;;5010700;28;20232;-67
2021/05/26 01:19:50;;;;;;;1.95;1.25;;;9.90;99.90;;;;;;5010533;28;20228;-68
2021/05/26 01:22:19;;;;;;;3.28;1.10;;;9.90;99.90;;;;;;5010958;28;20177;-69
2021/05/26 01:24:47;;;;;;;1.30;0.90;;;10.00;99.90;;;;;;5009789;28;20190;-66
2021/05/26 01:27:15;;;;;;;2.65;1.08;;;9.90;99.90;;;;;;5009237;28;20194;-68
2021/05/26 01:29:44;;;;;;;1.38;1.00;;;9.90;99.90;;;;;;5010779;28;20208;-67
2021/05/26 01:32:12;;;;;;;1.70;0.82;;;9.90;99.90;;;;;;5010515;28;20292;-69
2021/05/26 01:34:45;;;;;;;2.03;1.65;;;10.00;99.90;;;;;;5008919;28;20690;-67
2021/05/26 01:37:13;;;;;;;1.00;0.80;;;10.00;99.90;;;;;;5010421;28;20198;-67
2021/05/26 01:39:41;;;;;;;2.00;1.35;;;10.00;99.90;;;;;;5010398;28;20623;-67
2021/05/26 01:42:09;;;;;;;1.20;0.90;;;10.00;99.90;;;;;;5008716;28;20646;-67
2021/05/26 01:44:37;;;;;;;0.98;0.80;;;10.00;99.90;;;;;;5010260;28;20174;-68
2021/05/26 01:47:26;;;;;;;0.80;0.60;;;10.00;99.90;;;;;;5008573;28;20277;-68
2021/05/26 01:49:54;;;;;;;1.50;0.90;;;10.00;99.90;;;;;;5010010;28;20693;-68
2021/05/26 01:52:22;;;;;;;1.27;1.17;;;10.00;99.90;;;;;;5008606;28;20205;-66
2021/05/26 01:54:50;;;;;;;1.10;0.90;;;10.10;99.90;;;;;;5008775;28;20217;-67
2021/05/26 01:57:19;;;;;;;1.00;0.70;;;10.10;99.90;;;;;;5009068;28;20226;-68
2021/05/26 01:59:47;;;;;;;1.15;0.90;;;10.00;99.90;;;;;;5008925;28;20186;-67
2021/05/26 02:02:19;;;;;;;2.42;0.90;;;10.00;99.90;;;;;;5008821;28;20194;-69
2021/05/26 02:04:46;;;;;;;1.20;0.80;;;10.00;99.90;;;;;;5009988;28;20255;-69
2021/05/26 02:07:14;;;;;;;1.55;0.88;;;10.00;99.90;;;;;;5009967;28;20198;-66
2021/05/26 02:09:43;;;;;;;2.50;1.20;;;10.10;99.90;;;;;;5014203;28;20722;-68
2021/05/26 02:12:21;;;;;;;2.45;1.27;;;10.10;99.90;;;;;;5014916;28;20194;-70
2021/05/26 02:14:55;;;;;;;1.83;0.98;;;10.00;99.90;;;;;;5014312;28;20244;-66
2021/05/26 02:17:24;;;;;;;2.10;0.95;;;9.90;99.90;;;;;;5013244;28;20196;-69
2021/05/26 02:19:55;;;;;;;1.35;1.02;;;9.90;99.90;;;;;;5016438;28;20193;-68
2021/05/26 02:22:22;;;;;;;1.40;1.20;;;9.90;99.90;;;;;;5014065;28;20179;-68
2021/05/26 02:24:50;;;;;;;1.20;0.95;;;9.90;99.90;;;;;;5013762;28;20186;-68
2021/05/26 02:27:19;;;;;;;2.05;1.90;;;9.90;99.90;;;;;;5014015;28;20185;-68
2021/05/26 02:29:47;;;;;;;1.88;1.50;;;9.90;99.90;;;;;;5013810;28;20292;-68
2021/05/26 02:32:15;;;;;;;1.75;1.25;;;9.90;99.90;;;;;;5014018;28;20190;-69
2021/05/26 02:34:44;;;;;;;1.35;1.10;;;9.90;99.90;;;;;;5013313;28;20205;-67
2021/05/26 02:37:12;;;;;;;1.70;1.10;;;10.00;99.90;;;;;;5012367;28;20186;-67
2021/05/26 02:39:40;;;;;;;1.25;1.00;;;9.90;99.90;;;;;;5013551;28;20244;-66
2021/05/26 02:42:08;;;;;;;1.17;0.90;;;9.90;99.90;;;;;;5012227;28;20198;-70
2021/05/26 02:44:37;;;;;;;1.63;1.05;;;9.90;99.90;;;;;;5012174;28;20190;-68
2021/05/26 02:47:05;;;;;;;2.25;1.10;;;9.90;99.90;;;;;;5013689;28;20174;-66
2021/05/26 02:49:36;;;;;;;1.00;0.70;;;9.80;99.90;;;;;;5011657;28;20587;-67
2021/05/26 02:52:04;;;;;;;1.40;1.17;;;9.80;99.90;;;;;;5011923;28;20194;-68
2021/05/26 02:54:33;;;;;;;1.35;1.00;;;9.90;99.90;;;;;;5013100;28;20587;-68
2021/05/26 02:57:02;;;;;;;1.30;1.02;;;9.90;99.90;;;;;;5012154;28;20206;-68
2021/05/26 02:59:49;;;;;;;1.75;0.90;;;9.90;99.90;;;;;;5013308;28;20197;-69
2021/05/26 03:02:40;;;;;;;2.05;1.20;;;9.90;99.90;;;;;;5002484;28;20210;-69
2021/05/26 03:05:10;;;;;;;1.25;0.88;;;9.90;99.90;;;;;;5057731;23;20272;-82
2021/05/26 03:07:39;;;;;;;1.58;1.15;;;9.90;99.90;;;;;;5024517;28;20251;-81
2021/05/26 03:10:10;;;;;;;4.13;1.17;;;9.90;99.90;;;;;;5024644;28;20201;-82
2021/05/26 03:12:39;;;;;;;1.52;1.30;;;9.90;99.90;;;;;;5057316;28;20221;-82
2021/05/26 03:15:14;;;;;;;1.00;0.90;;;9.90;99.90;;;;;;5040808;28;20209;-82
2021/05/26 03:17:43;;;;;;;1.42;1.13;;;9.90;99.90;;;;;;5045353;28;20221;-82
2021/05/26 03:20:15;;;;;;;1.00;0.90;;;9.90;99.90;;;;;;5041924;28;20189;-81
2021/05/26 03:22:46;;;;;;;3.35;1.48;;;9.90;99.90;;;;;;5041966;28;20193;-82
2021/05/26 03:25:37;;;;;;;1.45;1.13;;;10.00;99.90;;;;;;5043095;28;20189;-82
2021/05/26 03:28:09;;;;;;;1.90;0.90;;;10.00;99.90;;;;;;5041632;28;20200;-82
2021/05/26 03:30:38;;;;;;;3.05;1.10;;;10.10;99.90;;;;;;5042590;28;20272;-80
2021/05/26 03:33:08;;;;;;;1.88;1.27;;;10.10;99.90;;;;;;5045081;28;20227;-81
2021/05/26 03:35:36;;;;;;;2.28;0.77;;;10.10;99.90;;;;;;5058359;28;20213;-82
2021/05/26 03:38:04;;;;;;;2.75;1.35;;;10.20;99.90;;;;;;5043140;28;20255;-82
2021/05/26 03:40:39;;;;;;;2.47;1.38;;;10.20;99.90;;;;;;5041491;28;20193;-79
2021/05/26 03:43:08;;;;;;;3.92;1.60;;;10.20;99.90;;;;;;5042840;28;20209;-80
2021/05/26 03:45:40;;;;;;;1.10;1.00;;;10.20;99.90;;;;;;5040158;28;20272;-79
2021/05/26 03:48:13;;;;;;;1.20;0.95;;;10.30;99.90;;;;;;5042275;28;20632;-80
2021/05/26 03:50:44;;;;;;;1.77;1.15;;;10.30;99.90;;;;;;5044582;28;20224;-80
2021/05/26 03:53:13;;;;;;;2.00;1.27;;;10.40;99.90;;;;;;5041369;28;20233;-80
2021/05/26 03:55:44;;;;;;;1.73;1.03;;;10.40;99.90;;;;;;5041510;28;20220;-80
2021/05/26 03:58:30;;;;;;;2.08;1.52;;;10.50;99.90;;;;;;5043064;28;20471;-81
2021/05/26 04:01:03;;;;;;;2.60;1.37;;;10.50;99.90;;;;;;5042647;28;20194;-82
2021/05/26 04:03:32;;;;;;;2.03;1.37;;;10.60;99.90;;;;;;5005216;28;1068799;-80
2021/05/26 04:06:04;;;;;;;3.10;1.53;;;10.80;99.90;;;;;;5043125;28;20996;-80
2021/05/26 04:08:32;;;;;;;4.93;1.27;;;11.00;99.90;;;;;;5043340;28;20739;-81
2021/05/26 04:11:00;;;;;;;2.57;1.50;;;11.60;99.90;;;;;;5043647;28;20435;-80
2021/05/26 04:13:48;;;;;;;2.03;1.50;;;12.00;99.90;;;;;;5043131;28;20434;-80
2021/05/26 04:16:35;;;;;;;1.47;0.90;;;12.20;99.90;;;;;;5040536;28;20427;-81
2021/05/26 04:19:29;;;;;;;1.57;1.07;;;12.40;99.90;;;;;;5038000;28;20474;-81
2021/05/26 04:21:59;;;;;;;2.27;1.67;;;12.00;99.90;;;;;;5043525;28;20403;-82
2021/05/26 04:24:32;;;;;;;1.80;0.93;;;11.70;99.90;;;;;;5043380;28;20441;-82
2021/05/26 04:26:59;;;;;;;3.90;1.80;;;11.50;99.90;;;;;;5042657;28;20517;-81
2021/05/26 04:29:27;;;;;;;2.37;1.17;;;11.50;99.90;;;;;;5044562;28;20411;-81
2021/05/26 04:31:56;;;;;;;2.13;1.00;;;11.30;99.90;;;;;;5044154;28;20419;-82
2021/05/26 04:34:25;;;;;;;1.40;1.20;;;11.10;99.90;;;;;;5043951;28;21056;-81
2021/05/26 04:36:52;;;;;;;1.25;1.05;;;11.10;99.90;;;;;;5041462;28;20421;-82
2021/05/26 04:39:20;;;;;;;2.13;1.50;;;11.10;99.90;;;;;;5044366;28;20200;-81
2021/05/26 04:41:48;;;;;;;2.00;1.23;;;11.10;99.90;;;;;;5045764;28;20506;-81
2021/05/26 04:44:16;;;;;;;1.50;1.40;;;11.80;99.90;;;;;;5053193;28;20221;-80
2021/05/26 04:46:43;;;;;;;1.97;1.10;;;13.30;99.90;;;;;;5056631;28;20436;-81
2021/05/26 04:49:13;;;;;;;1.70;1.20;;;13.90;99.90;;;;;;5057515;28;20395;-78
2021/05/26 04:51:40;;;;;;;2.70;1.00;;;15.30;99.90;;;;;;5056515;28;20433;-80
2021/05/26 04:54:08;;;;;;;1.30;1.00;;;15.10;99.90;;;;;;5057805;28;20477;-79
2021/05/26 04:56:36;;;;;;;7.77;1.27;;;14.20;99.90;;;;;;5057466;28;20424;-80
2021/05/26 04:59:04;;;;;;;1.80;1.20;;;13.60;99.90;;;;;;5056777;28;20436;-79
2021/05/26 05:01:32;;;;;;;3.27;1.07;;;13.30;99.90;;;;;;5056660;28;20437;-80
2021/05/26 05:03:59;;;;;;;2.23;1.47;;;13.00;99.90;;;;;;5047639;28;20555;-81
2021/05/26 05:06:30;;;;;;;1.40;1.20;;;13.00;99.90;;;;;;5045220;28;20402;-81
2021/05/26 05:08:57;;;;;;;2.70;1.50;;;13.70;99.90;;;;;;5046119;28;20443;-82
2021/05/26 05:11:25;;;;;;;2.70;1.40;;;14.40;99.90;;;;;;5046318;28;20398;-80
2021/05/26 05:13:53;;;;;;;2.03;1.40;;;14.10;99.90;;;;;;5047551;28;20527;-80
2021/05/26 05:16:21;;;;;;;2.00;1.60;;;14.30;99.90;;;;;;5045917;28;21070;-81
2021/05/26 05:18:49;;;;;;;1.80;1.40;;;14.80;99.90;;;;;;5048891;28;20471;-81
2021/05/26 05:21:16;;;;;;;2.13;1.77;;;14.90;99.90;;;;;;5048881;28;20526;-82
2021/05/26 05:23:45;;;;;;;2.17;1.40;;;14.60;99.90;;;;;;5047145;28;21029;-80
2021/05/26 05:26:13;;;;;;;1.70;1.40;;;14.00;99.90;;;;;;5052398;28;20395;-80
2021/05/26 05:28:41;;;;;;;2.30;1.97;;;13.70;99.90;;;;;;5037013;28;20399;-78
2021/05/26 05:31:10;;;;;;;3.43;2.20;;;13.30;99.90;;;;;;5037113;28;20406;-78
2021/05/26 05:33:37;;;;;;;2.50;2.23;;;13.20;99.90;;;;;;5037592;28;20435;-78
2021/05/26 05:36:05;;;;;;;2.20;1.80;;;13.50;99.90;;;;;;5037673;28;20491;-79
2021/05/26 05:38:33;;;;;;;1.73;1.50;;;13.60;99.90;;;;;;5036497;28;20428;-78
2021/05/26 05:41:02;;;;;;;1.57;1.30;;;13.40;99.90;;;;;;5037651;28;20384;-78
2021/05/26 05:43:30;;;;;;;3.10;1.23;;;13.30;99.90;;;;;;5036715;28;20743;-78
2021/05/26 05:46:00;;;;;;;3.03;1.63;;;12.80;99.90;;;;;;5037016;28;20452;-78
2021/05/26 05:48:28;;;;;;;2.80;1.90;;;12.70;99.90;;;;;;5037554;28;20488;-78
2021/05/26 05:50:55;;;;;;;2.97;2.00;;;12.90;99.90;;;;;;5037424;28;20471;-78
2021/05/26 05:53:23;;;;;;;2.60;1.60;;;12.80;99.90;;;;;;5036587;28;20490;-77
2021/05/26 05:55:51;;;;;;;2.50;1.73;;;12.90;99.90;;;;;;5036779;28;20524;-77
2021/05/26 05:58:24;;;;;;;1.33;1.23;;;12.90;99.90;;;;;;5036858;28;20445;-77
2021/05/26 06:00:52;;;;;;;3.73;1.83;;;12.90;99.90;;;;;;5037410;28;20437;-78
2021/05/26 06:03:20;;;;;;;2.00;1.80;;;12.90;99.90;;;;;;5037224;28;20487;-78
2021/05/26 06:05:48;;;;;;;2.10;1.90;;;12.70;99.90;;;;;;5037118;28;20456;-78
2021/05/26 06:08:15;;;;;;;2.20;1.60;;;12.80;99.90;;;;;;5037079;28;20376;-78
2021/05/26 06:10:43;;;;;;;1.40;1.07;;;13.00;99.90;;;;;;5034207;28;20421;-81
2021/05/26 06:13:11;;;;;;;2.60;1.87;;;13.00;99.90;;;;;;5019073;28;20427;-81
2021/05/26 06:15:40;;;;;;;2.40;2.20;;;13.30;99.90;;;;;;5018844;28;20921;-81
2021/05/26 06:18:08;;;;;;;6.23;1.53;;;13.20;99.90;;;;;;5029386;28;20429;-80
2021/05/26 06:20:35;;;;;;;2.97;1.70;;;13.30;99.90;;;;;;5032248;28;20453;-81
2021/05/26 06:23:03;;;;;;;3.07;1.70;;;13.40;99.90;;;;;;5030425;28;20477;-80
2021/05/26 06:25:31;;;;;;;1.57;1.47;;;13.40;99.90;;;;;;5021156;28;20431;-81
2021/05/26 06:27:59;;;;;;;1.50;1.30;;;13.50;99.90;;;;;;5018031;28;20404;-81
2021/05/26 06:30:27;;;;;;;2.27;2.07;;;13.40;99.90;;;;;;5017281;28;20504;-80
2021/05/26 06:32:55;;;;;;;2.00;1.73;;;13.10;99.90;;;;;;5016928;28;20814;-82
2021/05/26 06:35:23;;;;;;;2.07;1.70;;;13.30;99.90;;;;;;5018163;28;20468;-81
2021/05/26 06:37:51;;;;;;;2.60;2.40;;;13.40;99.90;;;;;;5019173;28;20396;-80
2021/05/26 06:40:18;;;;;;;2.30;2.10;;;13.60;99.90;;;;;;5018687;28;20524;-81
2021/05/26 06:42:46;;;;;;;1.90;1.80;;;14.00;99.90;;;;;;5023891;28;20452;-81
2021/05/26 06:45:14;;;;;;;4.13;1.77;;;14.00;99.90;;;;;;5024769;28;20519;-82
2021/05/26 06:47:42;;;;;;;3.30;2.00;;;14.00;99.90;;;;;;5023240;28;20433;-80
2021/05/26 06:50:12;;;;;;;2.13;1.30;;;14.20;99.90;;;;;;5024204;28;20426;-80
2021/05/26 06:52:40;;;;;;;3.63;1.37;;;14.50;99.90;;;;;;5017902;28;20396;-80
2021/05/26 06:55:10;;;;;;;1.97;1.80;;;14.50;99.90;;;;;;5017570;28;20564;-81
2021/05/26 06:57:38;;;;;;;2.87;1.70;;;14.50;99.90;;;;;;5016400;28;20618;-81
2021/05/26 07:00:07;;;;;;;2.80;2.10;;;14.60;99.90;;;;;;5016872;28;20415;-81
2021/05/26 07:02:35;;;;;;;3.10;1.57;;;14.60;99.90;;;;;;5016725;28;20443;-81
2021/05/26 07:05:04;;;;;;;1.40;1.10;;;14.60;99.90;;;;;;5020267;28;20435;-81
2021/05/26 07:07:33;;;;;;;1.93;1.30;;;14.90;99.90;;;;;;5020530;28;20429;-81
2021/05/26 07:10:00;;;;;;;1.97;1.60;;;14.70;99.90;;;;;;5021806;28;20432;-82
2021/05/26 07:12:28;;;;;;;2.73;1.90;;;14.40;99.90;;;;;;5019560;28;20470;-81
2021/05/26 07:14:56;;;;;;;1.70;1.47;;;14.40;99.90;;;;;;5037439;28;20980;-81
2021/05/26 07:17:23;;;;;;;2.20;1.40;;;14.20;99.90;;;;;;5051608;28;20391;-81
2021/05/26 07:19:51;;;;;;;1.63;1.53;;;14.20;99.90;;;;;;5057687;28;20443;-79
2021/05/26 07:22:19;;;;;;;3.07;1.77;;;14.30;99.90;;;;;;5056725;28;20515;-79
2021/05/26 07:24:47;;;;;;;2.40;1.83;;;14.40;99.90;;;;;;5054367;28;20441;-80
2021/05/26 07:27:15;;;;;;;2.10;1.60;;;14.60;99.90;;;;;;5040074;28;21058;-80
2021/05/26 07:29:43;;;;;;;2.80;2.00;;;14.60;99.90;;;;;;5037979;28;20426;-78
2021/05/26 07:32:11;;;;;;;2.07;1.20;;;14.70;99.90;;;;;;5035016;28;20438;-77
2021/05/26 07:34:38;;;;;;;7.43;2.33;;;14.80;99.90;;;;;;5027220;28;20860;-77
2021/05/26 07:37:06;;;;;;;1.70;1.47;;;15.00;99.90;;;;;;5014983;28;20483;-77
2021/05/26 07:39:35;;;;;;;2.13;1.50;;;15.30;99.90;;;;;;5015854;28;20391;-77
2021/05/26 07:42:05;;;;;;;2.87;2.33;;;15.80;99.90;;;;;;5015401;28;20515;-77
2021/05/26 07:44:34;;;;;;;2.63;1.73;;;15.80;99.90;;;;;;5016161;28;20924;-77
2021/05/26 07:47:02;;;;;;;1.90;1.77;;;15.50;99.90;;;;;;5015137;28;20387;-77
2021/05/26 07:49:30;;;;;;;4.00;2.00;;;15.50;99.90;;;;;;5015047;28;20520;-77
2021/05/26 07:52:03;;;;;;;2.70;1.50;;;15.60;99.90;;;;;;5015610;28;20425;-77
2021/05/26 07:54:31;;;;;;;1.87;1.50;;;15.50;99.90;;;;;;5014044;28;20431;-76
2021/05/26 07:57:00;;;;;;;2.13;1.53;;;15.90;99.90;;;;;;5014616;28;20439;-77
2021/05/26 07:59:28;;;;;;;1.80;1.30;;;16.30;99.90;;;;;;5014589;28;20777;-77
2021/05/26 08:01:56;;;;;;;1.57;1.47;;;16.50;99.90;;;;;;5017050;28;20472;-76
2021/05/26 08:04:23;;;;;;;2.07;1.37;;;16.70;99.90;;;;;;5018964;28;20820;-77
2021/05/26 08:06:51;;;;;;;2.00;1.50;;;16.90;99.90;;;;;;5015248;28;20504;-77
2021/05/26 08:09:19;;;;;;;1.93;1.60;;;16.70;99.90;;;;;;5014405;28;20494;-77
2021/05/26 08:11:46;;;;;;;2.23;1.50;;;15.90;99.90;;;;;;5018807;28;20420;-76
2021/05/26 08:14:14;;;;;;;2.43;1.77;;;15.30;99.90;;;;;;5016048;28;20435;-77
2021/05/26 08:16:42;;;;;;;3.70;1.63;;;14.80;99.90;;;;;;5013887;28;20461;-78
2021/05/26 08:19:10;;;;;;;2.50;1.30;;;14.70;99.90;;;;;;5013022;28;20729;-77
2021/05/26 08:21:39;;;;;;;3.63;1.90;;;15.00;99.90;;;;;;5014639;28;20516;-77
2021/05/26 08:24:08;;;;;;;2.87;1.57;;;15.10;99.90;;;;;;5014737;28;20455;-78
2021/05/26 08:26:36;;;;;;;2.33;1.50;;;15.20;99.90;;;;;;5015400;28;20517;-77
2021/05/26 08:29:04;;;;;;;1.90;1.80;;;15.30;99.90;;;;;;5014534;28;20412;-77
2021/05/26 08:31:32;;;;;;;2.60;1.47;;;15.30;99.90;;;;;;5014903;28;20467;-77
2021/05/26 08:34:01;;;;;;;1.50;1.30;;;15.30;99.90;;;;;;5016614;28;21009;-76
2021/05/26 08:36:28;;;;;;;3.27;1.43;;;15.10;99.90;;;;;;5023907;28;20482;-76
2021/05/26 08:38:56;;;;;;;1.60;1.50;;;15.00;99.90;;;;;;5023401;28;20395;-76
2021/05/26 08:41:24;;;;;;;3.43;1.40;;;15.10;99.90;;;;;;5024709;28;20396;-78
2021/05/26 08:43:52;;;;;;;1.90;1.30;;;15.40;99.90;;;;;;5023468;28;20449;-78
2021/05/26 08:46:21;;;;;;;2.00;1.40;;;15.40;99.90;;;;;;5018081;28;20753;-78
2021/05/26 08:48:52;;;;;;;1.47;1.20;;;15.90;99.90;;;;;;5016876;28;20517;-78
2021/05/26 08:51:21;;;;;;;1.67;1.40;;;16.70;99.90;;;;;;5015894;28;20981;-77
2021/05/26 08:53:48;;;;;;;3.20;1.80;;;17.30;99.90;;;;;;5013975;28;20431;-77
2021/05/26 08:56:16;;;;;;;2.43;1.40;;;17.70;99.90;;;;;;5015216;28;20490;-78
2021/05/26 08:58:43;;;;;;;1.30;1.20;;;18.20;99.90;;;;;;5015348;28;20408;-77
2021/05/26 09:01:14;;;;;;;5.10;2.67;;;17.90;99.90;;;;;;5014992;28;20431;-77
2021/05/26 09:03:42;;;;;;;1.40;1.07;;;17.70;99.90;;;;;;5030222;23;20463;-76
2021/05/26 09:06:13;;;;;;;2.07;1.73;;;17.70;99.90;;;;;;5031713;28;20788;-78
2021/05/26 09:08:49;;;;;;;3.30;1.27;;;17.10;99.90;;;;;;5019442;28;20411;-77
2021/05/26 09:11:28;;;;;;;2.27;1.20;;;16.80;99.90;;;;;;5011674;28;20407;-77
2021/05/26 09:13:56;;;;;;;1.80;1.60;;;16.70;99.90;;;;;;5036110;28;20481;-77
2021/05/26 09:16:31;;;;;;;5.50;1.50;;;16.40;99.90;;;;;;5034939;28;20426;-77
2021/05/26 09:19:00;;;;;;;2.70;1.50;;;15.70;99.90;;;;;;5015440;28;20590;-77
2021/05/26 09:21:41;;;;;;;1.60;1.33;;;15.50;99.90;;;;;;5014193;28;20746;-77
2021/05/26 09:24:29;;;;;;;2.00;1.87;;;15.40;99.90;;;;;;5014961;28;20449;-77
2021/05/26 09:27:01;;;;;;;4.60;1.27;;;15.10;99.90;;;;;;5029678;28;20817;-77
2021/05/26 09:29:30;;;;;;;1.97;1.43;;;15.20;99.90;;;;;;5041831;28;20448;-77
2021/05/26 09:32:19;;;;;;;2.73;1.67;;;15.30;99.90;;;;;;5035483;28;20403;-77
2021/05/26 09:34:48;;;;;;;1.10;0.87;;;15.50;99.90;;;;;;5034649;28;20418;-76
2021/05/26 09:37:18;;;;;;;1.70;1.10;;;15.70;99.90;;;;;;5018963;28;20431;-76
2021/05/26 09:39:52;;;;;;;1.27;1.13;;;16.10;99.90;;;;;;5014020;28;20433;-76
2021/05/26 09:42:28;;;;;;;2.03;1.40;;;16.30;99.90;;;;;;5013070;28;20395;-77
2021/05/26 09:45:15;;;;;;;1.10;1.00;;;16.60;99.90;;;;;;4993070;28;20459;-77
2021/05/26 09:47:45;;;;;;;1.50;1.10;;;16.90;99.90;;;;;;4993508;28;20443;-77
2021/05/26 09:50:18;;;;;;;1.53;1.20;;;16.90;99.90;;;;;;4995672;28;20418;-76
2021/05/26 09:53:05;;;;;;;2.83;1.00;;;17.20;99.90;;;;;;4993475;28;20491;-76
2021/05/26 09:55:36;;;;;;;5.13;1.87;;;17.10;99.90;;;;;;4994069;28;20410;-77
2021/05/26 09:58:04;;;;;;;2.40;1.30;;;17.70;99.90;;;;;;5004018;28;20451;-77
2021/05/26 10:00:33;;;;;;;1.33;0.93;;;18.20;99.90;;;;;;5012604;28;20437;-77
2021/05/26 10:03:01;;;;;;;2.17;1.30;;;18.20;99.90;;;;;;5011862;28;20479;-77
2021/05/26 10:05:28;;;;;;;2.73;1.50;;;18.10;99.90;;;;;;5011993;28;20479;-77
2021/05/26 10:08:16;;;;;;;1.80;1.43;;;17.90;99.90;;;;;;5012282;28;20399;-77
2021/05/26 10:11:10;;;;;;;1.73;1.10;;;17.70;99.90;;;;;;4991718;28;20451;-76
2021/05/26 10:13:45;;;;;;;2.10;1.10;;;17.20;99.90;;;;;;4993646;28;20431;-76
2021/05/26 10:16:16;;;;;;;1.53;0.97;;;17.80;99.90;;;;;;4992909;28;20465;-77
2021/05/26 10:18:45;;;;;;;1.60;0.90;;;18.30;99.90;;;;;;4992604;28;20456;-75
2021/05/26 10:21:15;;;;;;;2.53;1.13;;;18.70;99.90;;;;;;4992693;28;20418;-77
2021/05/26 10:23:43;;;;;;;2.97;1.40;;;19.00;99.90;;;;;;4992228;28;20961;-77
2021/05/26 10:26:12;;;;;;;3.40;2.23;;;19.40;99.90;;;;;;4992340;28;20432;-77
2021/05/26 10:28:39;;;;;;;4.13;1.60;;;19.40;99.90;;;;;;4992495;28;20484;-76
2021/05/26 10:31:07;;;;;;;3.40;1.30;;;19.00;99.90;;;;;;4992806;28;20830;-77
2021/05/26 10:33:51;;;;;;;2.00;1.33;;;18.70;99.90;;;;;;4992099;28;20782;-77
2021/05/26 10:36:21;;;;;;;4.10;1.73;;;18.20;99.90;;;;;;5006444;28;20446;-77
2021/05/26 10:38:57;;;;;;;2.70;1.50;;;18.10;99.90;;;;;;5013473;28;20474;-75
2021/05/26 10:41:26;;;;;;;2.80;0.90;;;18.30;99.90;;;;;;5015894;28;20403;-78
2021/05/26 10:43:57;;;;;;;1.83;0.87;;;18.60;99.90;;;;;;5016088;28;20477;-76
2021/05/26 10:46:33;;;;;;;1.30;1.13;;;18.20;99.90;;;;;;5016089;28;20421;-77
2021/05/26 10:49:06;;;;;;;1.83;0.90;;;18.30;99.90;;;;;;5015619;28;20450;-76
2021/05/26 10:52:10;;;;;;;1.37;0.97;;;18.30;99.90;;;;;;5015600;28;20531;-76
2021/05/26 10:54:59;;;;;;;1.60;1.20;;;17.80;99.90;;;;;;5015700;28;20789;-77
2021/05/26 10:57:29;;;;;;;1.87;1.60;;;17.70;99.90;;;;;;5015221;28;20475;-76
2021/05/26 11:00:33;;;;;;;3.00;1.17;;;17.70;99.90;;;;;;5015667;28;20667;-77
2021/05/26 11:03:41;;;;;;;3.77;1.37;;;17.90;99.90;;;;;;5015554;28;20395;-78
2021/05/26 11:06:35;;;;;;;4.30;1.70;;;18.10;99.90;;;;;;5016696;28;20446;-78
2021/05/26 11:09:06;;;;;;;1.50;1.30;;;18.10;99.90;;;;;;5018642;28;20388;-77
2021/05/26 11:11:52;;;;;;;1.70;1.20;;;17.90;99.90;;;;;;5030414;28;20410;-76
2021/05/26 11:14:35;;;;;;;4.13;1.40;;;17.90;99.90;;;;;;5024834;28;20755;-76
2021/05/26 11:17:30;;;;;;;7.27;1.50;;;17.90;99.90;;;;;;5015794;28;20491;-76
2021/05/26 11:20:17;;;;;;;1.73;1.10;;;17.80;99.90;;;;;;5015487;28;20917;-76
2021/05/26 11:22:45;;;;;;;1.37;1.10;;;17.80;99.90;;;;;;5015218;28;20430;-75
2021/05/26 11:25:14;;;;;;;2.07;1.47;;;17.60;99.90;;;;;;5015132;28;20427;-77
2021/05/26 11:27:53;;;;;;;1.20;0.90;;;17.40;99.90;;;;;;5015159;28;20429;-77
2021/05/26 11:30:25;;;;;;;2.53;1.20;;;17.50;99.90;;;;;;5014944;28;20417;-77
2021/05/26 11:32:54;;;;;;;4.03;1.20;;;17.50;99.90;;;;;;5014931;28;20532;-77
2021/05/26 11:35:21;;;;;;;2.57;1.60;;;17.60;99.90;;;;;;5015002;28;20996;-76
2021/05/26 11:37:49;;;;;;;1.40;1.27;;;17.60;99.90;;;;;;5014778;28;20447;-76
2021/05/26 11:40:28;;;;;;;2.30;1.37;;;17.70;99.90;;;;;;5014599;28;20425;-77
2021/05/26 11:42:58;;;;;;;2.00;1.30;;;17.30;99.90;;;;;;5014573;28;20399;-76
2021/05/26 11:45:27;;;;;;;3.33;1.40;;;17.30;99.90;;;;;;5014691;28;20933;-76
2021/05/26 11:47:56;;;;;;;4.20;3.80;;;17.10;99.90;;;;;;5015087;28;20927;-77
2021/05/26 11:50:29;;;;;;;3.03;1.17;;;17.20;99.90;;;;;;5012316;28;20480;-76
2021/05/26 11:53:16;;;;;;;1.00;0.73;;;17.10;99.90;;;;;;5016154;28;20425;-77
2021/05/26 11:55:49;;;;;;;3.03;1.60;;;17.40;99.90;;;;;;5018202;28;21041;-77
2021/05/26 11:58:30;;;;;;;5.17;1.27;;;17.70;99.90;;;;;;5018403;28;20430;-76
2021/05/26 12:01:05;;;;;;;1.83;0.83;;;17.70;99.90;;;;;;5019223;28;20779;-76
2021/05/26 12:03:32;;;;;;;1.30;0.90;;;17.60;99.90;;;;;;5017515;28;20796;-76
2021/05/26 12:06:01;;;;;;;1.50;1.10;;;17.40;99.90;;;;;;5015236;28;20496;-77
2021/05/26 12:08:29;;;;;;;1.53;1.43;;;17.10;99.90;;;;;;5014659;28;20410;-76
2021/05/26 12:11:00;;;;;;;3.23;1.40;;;16.60;99.90;;;;;;5007613;28;20777;-76
2021/05/26 12:13:29;;;;;;;1.60;1.23;;;16.10;99.90;;;;;;4997007;28;20446;-77
2021/05/26 12:15:59;;;;;;;1.60;1.00;;;16.20;99.90;;;;;;4997531;28;20397;-77
2021/05/26 12:18:28;;;;;;;1.07;0.87;;;16.40;99.90;;;;;;5012752;28;20554;-77
2021/05/26 12:20:57;;;;;;;1.97;1.37;;;16.40;99.90;;;;;;5019298;28;20487;-77
2021/05/26 12:23:33;;;;;;;1.87;1.20;;;16.10;99.90;;;;;;5036053;28;20816;-77
2021/05/26 12:26:03;;;;;;;2.40;1.23;;;15.80;99.90;;;;;;5019226;28;20437;-76
2021/05/26 12:28:33;;;;;;;1.57;1.13;;;15.80;99.90;;;;;;5021897;28;20400;-76
2021/05/26 12:31:13;;;;;;;2.53;1.40;;;15.80;99.90;;;;;;5015882;28;20411;-76
2021/05/26 12:33:46;;;;;;;1.70;1.20;;;16.00;99.90;;;;;;5013172;28;20845;-76
2021/05/26 12:36:14;;;;;;;1.20;1.10;;;16.00;99.90;;;;;;5013992;28;20407;-76
2021/05/26 12:38:43;;;;;;;4.90;1.03;;;16.10;99.90;;;;;;5012675;28;20443;-78
2021/05/26 12:41:23;;;;;;;1.00;0.70;;;16.20;99.90;;;;;;5021141;28;20456;-76
2021/05/26 12:43:51;;;;;;;1.10;0.70;;;16.40;99.90;;;;;;5013972;28;20427;-77
2021/05/26 12:46:43;;;;;;;1.63;0.80;;;16.40;99.90;;;;;;5012723;28;20412;-77
2021/05/26 12:49:46;;;;;;;1.10;0.80;;;16.40;99.90;;;;;;5012821;28;20415;-77
2021/05/26 12:52:25;;;;;;;0.90;0.60;;;16.60;99.90;;;;;;5018343;28;20387;-78
2021/05/26 12:54:53;;;;;;;1.30;0.70;;;17.50;99.90;;;;;;5015439;28;20497;-78
2021/05/26 12:57:24;;;;;;;0.90;0.50;;;18.10;99.90;;;;;;5013771;28;20461;-76
2021/05/26 12:59:53;;;;;;;1.67;0.77;;;18.70;99.90;;;;;;5013998;28;20428;-77
2021/05/26 13:02:29;;;;;;;1.10;0.70;;;19.00;99.90;;;;;;5013286;28;20866;-77
2021/05/26 13:04:58;;;;;;;1.10;0.80;;;18.90;99.90;;;;;;5013803;28;20473;-77
2021/05/26 13:07:27;;;;;;;0.90;0.60;;;18.90;99.90;;;;;;5015279;28;20822;-77